Terminal Aerodrome Forecast
Issued by NWS

Home | Current Version | Previous Version | Text Only | Print | Product List | Glossary Off
Versions: 1 2 3 4 5 6 7 8 9 10 11 12 13 14 15 16 17 18

752
FTUS43 KFGF 221125
TAFBJI
TAF
KBJI 221125Z 2212/2312 16006KT P6SM SCT250 WS010/18045KT
     FM221400 17009KT P6SM BKN250
     FM230200 16012KT P6SM BKN080
     FM230900 16010KT P6SM VCTS OVC025CB=

USA.gov is the U.S. government's official web portal to all federal, state and local government web resources and services.